createdAt,value
2019-02-28T00:03:03.103Z,74.83
2019-02-28T00:08:05.220Z,75.37
2019-02-28T00:13:10.282Z,74.94
2019-02-28T00:18:15.198Z,74.79
2019-02-28T00:23:19.182Z,74.81
2019-02-28T00:28:23.064Z,74.97
2019-02-28T00:33:26.880Z,75.29
2019-02-28T00:38:29.659Z,76.15
2019-02-28T00:43:35.311Z,76.06
2019-02-28T00:48:37.453Z,76.74
2019-02-28T00:53:42.149Z,76.82
2019-02-28T00:58:45.524Z,76.86
2019-02-28T01:03:58.033Z,77.54
2019-02-28T01:08:58.904Z,77.60
2019-02-28T01:14:03.607Z,77.05
2019-02-28T01:19:10.148Z,77.68
2019-02-28T01:24:14.641Z,77.87
2019-02-28T01:29:19.439Z,78.12
2019-02-28T01:34:22.924Z,78.84
2019-02-28T01:39:30.704Z,78.67
2019-02-28T01:44:35.805Z,77.79
2019-02-28T01:49:40.815Z,78.92
2019-02-28T01:54:43.367Z,78.61
2019-02-28T01:59:48.264Z,78.36
2019-02-28T02:04:50.362Z,79.07
2019-02-28T02:09:52.758Z,79.63
2019-02-28T02:14:57.139Z,79.70
2019-02-28T02:20:01.327Z,80.23
2019-02-28T02:25:08.532Z,80.06
2019-02-28T02:30:15.752Z,80.72
2019-02-28T02:35:18.065Z,80.20
2019-02-28T02:40:23.243Z,80.71
2019-02-28T02:45:26.694Z,80.69
2019-02-28T02:50:35.925Z,81.00
2019-02-28T02:55:38.503Z,81.21
2019-02-28T03:00:49.473Z,81.33
2019-02-28T03:05:52.773Z,81.53
2019-02-28T03:10:55.974Z,81.92
2019-02-28T03:15:59.263Z,82.06
2019-02-28T03:21:02.067Z,82.08
2019-02-28T03:26:07.151Z,81.76
2019-02-28T03:31:14.420Z,82.26
2019-02-28T03:36:17.293Z,82.02
2019-02-28T03:41:19.308Z,82.34
2019-02-28T03:46:25.086Z,82.53
2019-02-28T03:51:32.010Z,81.86
2019-02-28T03:56:38.217Z,82.35
2019-02-28T04:01:45.383Z,82.79
2019-02-28T04:06:48.589Z,83.01
2019-02-28T04:11:53.417Z,83.35
2019-02-28T04:16:55.711Z,82.98
2019-02-28T04:21:57.709Z,83.24
2019-02-28T04:27:05.895Z,83.33
2019-02-28T04:32:05.813Z,83.25
2019-02-28T04:37:09.539Z,83.63
2019-02-28T04:42:13.034Z,84.11
2019-02-28T04:47:20.297Z,83.81
2019-02-28T04:52:22.373Z,84.42
2019-02-28T04:57:27.163Z,84.78
2019-02-28T05:02:29.253Z,84.88
2019-02-28T05:07:34.121Z,84.77
2019-02-28T05:12:39.497Z,84.77
2019-02-28T05:17:42.264Z,84.87
2019-02-28T05:22:44.360Z,85.40
2019-02-28T05:27:46.406Z,85.15
2019-02-28T05:32:51.065Z,85.38
2019-02-28T05:37:54.245Z,85.28
2019-02-28T05:42:58.281Z,85.48
2019-02-28T05:48:03.789Z,85.42
2019-02-28T05:53:06.240Z,85.78
2019-02-28T05:58:11.872Z,85.95
2019-02-28T06:03:17.775Z,86.26
2019-02-28T06:08:20.900Z,86.34
2019-02-28T06:13:23.274Z,86.44
2019-02-28T06:18:32.684Z,86.64
2019-02-28T06:23:31.179Z,86.59
2019-02-28T06:28:36.208Z,86.34
2019-02-28T06:33:38.251Z,86.53
2019-02-28T06:38:40.295Z,86.31
2019-02-28T06:43:44.595Z,86.30
2019-02-28T06:48:46.711Z,85.66
2019-02-28T06:53:48.798Z,84.90
2019-02-28T06:58:53.605Z,84.38
2019-02-28T07:03:55.775Z,84.08
2019-02-28T07:09:01.829Z,83.13
2019-02-28T07:14:03.715Z,83.02
2019-02-28T07:19:06.494Z,82.95
2019-02-28T07:24:12.389Z,83.33
2019-02-28T07:29:16.735Z,83.01
2019-02-28T07:34:23.852Z,82.34
2019-02-28T07:39:24.362Z,82.09
2019-02-28T07:44:26.584Z,81.67
2019-02-28T07:49:28.674Z,81.61
2019-02-28T07:54:31.396Z,81.10
2019-02-28T07:59:33.645Z,80.96
2019-02-28T08:04:35.926Z,81.03
2019-02-28T08:09:40.606Z,80.62
2019-02-28T08:14:43.653Z,79.83
2019-02-28T08:19:47.524Z,79.52
2019-02-28T08:24:49.686Z,79.41
2019-02-28T08:29:51.935Z,79.39
2019-02-28T08:34:55.601Z,79.95
2019-02-28T08:39:58.114Z,79.45
2019-02-28T08:45:00.484Z,79.08
2019-02-28T08:50:03.676Z,78.62
2019-02-28T08:55:09.244Z,78.46
2019-02-28T09:00:13.800Z,76.98
2019-02-28T09:05:15.958Z,76.38
2019-02-28T09:10:18.361Z,75.66
2019-02-28T09:15:20.799Z,75.22
2019-02-28T09:20:22.817Z,74.91
2019-02-28T09:25:27.188Z,74.74
2019-02-28T09:30:36.357Z,72.93
2019-02-28T09:35:45.280Z,71.60
2019-02-28T09:40:49.556Z,70.83
2019-02-28T09:45:51.609Z,72.11
2019-02-28T09:50:59.174Z,72.22
2019-02-28T09:56:01.418Z,71.93
2019-02-28T10:01:06.768Z,71.67
2019-02-28T10:06:09.119Z,71.45
2019-02-28T10:11:15.476Z,72.09
2019-02-28T10:16:21.923Z,73.04
2019-02-28T10:21:25.353Z,73.28
2019-02-28T10:26:27.829Z,73.05
2019-02-28T10:31:36.179Z,73.27
2019-02-28T10:36:52.220Z,72.59
2019-02-28T10:41:56.881Z,71.17
2019-02-28T10:47:04.287Z,71.11
2019-02-28T10:52:08.417Z,69.87
2019-02-28T10:57:10.754Z,69.93
2019-02-28T11:02:18.932Z,71.50
2019-02-28T11:07:19.309Z,71.43
2019-02-28T11:12:23.741Z,71.45
2019-02-28T11:17:25.917Z,71.45
2019-02-28T11:22:28.046Z,69.54
2019-02-28T11:27:30.363Z,69.27
2019-02-28T11:32:32.573Z,69.23
2019-02-28T11:37:35.557Z,69.36
2019-02-28T11:42:37.824Z,69.37
2019-02-28T11:47:42.628Z,69.67
2019-02-28T11:52:43.989Z,69.51
2019-02-28T11:57:46.101Z,69.37
2019-02-28T12:02:53.385Z,69.19
2019-02-28T12:07:52.689Z,69.19
2019-02-28T12:12:56.376Z,68.74
2019-02-28T12:18:03.597Z,67.21
2019-02-28T12:23:02.661Z,66.52
2019-02-28T12:28:06.637Z,66.52
2019-02-28T12:33:09.282Z,64.73
2019-02-28T12:38:11.408Z,64.30
2019-02-28T12:43:13.641Z,66.85
2019-02-28T12:48:16.083Z,68.89
2019-02-28T12:53:24.331Z,69.11
2019-02-28T12:58:22.771Z,70.10
2019-02-28T13:03:25.573Z,70.17
2019-02-28T13:08:27.703Z,70.75
2019-02-28T13:13:30.125Z,70.67
2019-02-28T13:18:32.288Z,69.89
2019-02-28T13:23:34.593Z,70.39
2019-02-28T13:28:38.903Z,70.35
2019-02-28T13:33:48.619Z,70.91
2019-02-28T13:38:49.501Z,70.78
2019-02-28T13:43:54.758Z,70.78
2019-02-28T13:48:58.111Z,69.52
2019-02-28T13:54:03.134Z,70.37
2019-02-28T13:59:05.480Z,69.66
2019-02-28T14:04:13.889Z,69.92
2019-02-28T14:09:18.916Z,70.06
2019-02-28T14:14:22.174Z,69.41
2019-02-28T14:19:26.610Z,68.62
2019-02-28T14:24:30.953Z,68.51
2019-02-28T14:29:35.102Z,69.11
2019-02-28T14:34:37.320Z,69.88
2019-02-28T14:39:43.604Z,68.63
2019-02-28T14:44:49.445Z,68.63
2019-02-28T14:49:53.885Z,67.37
2019-02-28T14:54:58.305Z,69.27
2019-02-28T15:00:06.540Z,69.27
2019-02-28T15:05:16.693Z,68.80
2019-02-28T15:10:21.840Z,68.08
2019-02-28T15:15:24.247Z,67.99
2019-02-28T15:20:31.789Z,67.99
2019-02-28T15:25:31.536Z,68.00
2019-02-28T15:30:34.985Z,67.59
2019-02-28T15:35:37.266Z,68.66
2019-02-28T15:40:44.301Z,69.25
2019-02-28T15:45:46.557Z,70.51
2019-02-28T15:50:51.687Z,69.88
2019-02-28T15:55:56.916Z,69.97
2019-02-28T16:01:01.373Z,70.05
2019-02-28T16:06:03.636Z,70.38
2019-02-28T16:11:06.262Z,70.67
2019-02-28T16:16:09.499Z,71.02
2019-02-28T16:21:11.562Z,71.02
2019-02-28T16:26:18.234Z,71.46
2019-02-28T16:31:23.212Z,72.35
2019-02-28T16:36:29.197Z,72.35
2019-02-28T16:41:33.703Z,72.02
2019-02-28T16:46:38.107Z,72.13
2019-02-28T16:51:40.259Z,72.13
2019-02-28T16:56:42.524Z,72.60
2019-02-28T17:01:48.268Z,72.44
2019-02-28T17:06:53.027Z,74.58
2019-02-28T17:12:15.340Z,74.58
2019-02-28T17:17:23.826Z,75.66
2019-02-28T17:22:27.120Z,76.17
2019-02-28T17:27:53.912Z,76.19
2019-02-28T17:33:01.433Z,75.28
2019-02-28T17:38:03.800Z,76.40
2019-02-28T17:43:06.039Z,76.51
2019-02-28T17:48:31.223Z,75.96
2019-02-28T17:54:21.053Z,76.54
2019-02-28T17:59:48.131Z,77.07
2019-02-28T18:05:29.843Z,77.07
2019-02-28T18:11:16.546Z,77.32
2019-02-28T18:16:49.274Z,77.57
2019-02-28T18:22:19.014Z,79.01
2019-02-28T18:27:53.949Z,79.74
2019-02-28T18:33:00.006Z,80.01
2019-02-28T18:38:05.792Z,79.75
2019-02-28T18:43:11.820Z,78.92
2019-02-28T18:48:17.973Z,78.15
2019-02-28T18:53:25.555Z,79.66
2019-02-28T18:58:27.615Z,80.39
2019-02-28T19:03:29.748Z,81.01
2019-02-28T19:08:35.098Z,81.87
2019-02-28T19:13:39.162Z,81.94
2019-02-28T19:18:41.203Z,82.33
2019-02-28T19:23:43.784Z,82.01
2019-02-28T19:28:45.956Z,82.88
2019-02-28T19:33:48.455Z,82.54
2019-02-28T19:38:50.493Z,82.66
2019-02-28T19:43:56.553Z,83.25
2019-02-28T19:48:58.649Z,83.10
2019-02-28T19:54:02.189Z,82.89
2019-02-28T19:59:11.656Z,83.21
2019-02-28T20:04:15.392Z,83.03
2019-02-28T20:09:26.488Z,83.24
2019-02-28T20:14:29.058Z,83.45
2019-02-28T20:19:34.027Z,83.65
2019-02-28T20:24:37.905Z,83.71
2019-02-28T20:29:44.788Z,83.61
2019-02-28T20:34:49.006Z,83.77
2019-02-28T20:39:51.326Z,84.20
2019-02-28T20:44:53.654Z,83.71
2019-02-28T20:49:57.887Z,83.90
2019-02-28T20:55:00.383Z,84.34
2019-02-28T21:00:02.649Z,84.24
2019-02-28T21:05:09.520Z,84.88
2019-02-28T21:10:11.673Z,84.44
2019-02-28T21:15:18.285Z,84.65
2019-02-28T21:20:25.816Z,84.04
2019-02-28T21:25:30.019Z,83.74
2019-02-28T21:30:33.988Z,84.20
2019-02-28T21:35:36.289Z,84.04
2019-02-28T21:40:44.009Z,83.88
2019-02-28T21:45:47.260Z,84.32
2019-02-28T21:50:49.359Z,84.82
2019-02-28T21:55:55.777Z,84.06
2019-02-28T22:00:57.838Z,84.18
2019-02-28T22:06:01.765Z,84.01
2019-02-28T22:11:03.816Z,84.01
2019-02-28T22:16:11.590Z,83.97
2019-02-28T22:21:13.619Z,83.23
2019-02-28T22:26:16.674Z,83.47
2019-02-28T22:31:43.228Z,83.90
2019-02-28T22:36:49.971Z,83.82
2019-02-28T22:41:52.036Z,84.34
2019-02-28T22:46:57.132Z,84.54
2019-02-28T22:52:02.047Z,84.38
2019-02-28T22:57:04.380Z,84.29
2019-02-28T23:02:06.749Z,84.85
2019-02-28T23:07:14.039Z,84.94
2019-02-28T23:12:16.118Z,84.16
2019-02-28T23:17:18.246Z,84.94
2019-02-28T23:22:20.319Z,84.76
2019-02-28T23:27:24.196Z,84.53
2019-02-28T23:32:43.736Z,84.68
2019-02-28T23:37:48.811Z,84.38
2019-02-28T23:42:50.867Z,84.23
2019-02-28T23:47:58.808Z,84.18
2019-02-28T23:53:00.983Z,84.88
2019-02-28T23:58:03.181Z,84.49
